createdAt,value
2023-04-09T00:00:41.528Z,21.77
2023-04-09T00:03:08.427Z,22.33
2023-04-09T00:05:42.279Z,23.43
2023-04-09T00:08:09.043Z,22.10
2023-04-09T00:10:35.832Z,21.47
2023-04-09T00:13:02.618Z,21.97
2023-04-09T00:15:31.697Z,21.90
2023-04-09T00:17:59.470Z,22.60
2023-04-09T00:20:26.324Z,22.40
2023-04-09T00:22:53.160Z,20.73
2023-04-09T00:25:20.176Z,21.80
2023-04-09T00:27:47.106Z,22.70
2023-04-09T00:30:13.997Z,22.90
2023-04-09T00:32:41.071Z,24.03
2023-04-09T00:35:08.424Z,22.60
2023-04-09T00:37:35.426Z,23.43
2023-04-09T00:40:02.213Z,23.23
2023-04-09T00:42:33.016Z,22.30
2023-04-09T00:45:00.368Z,22.43
2023-04-09T00:47:31.198Z,23.27
2023-04-09T00:49:58.097Z,22.33
2023-04-09T00:52:25.491Z,22.33
2023-04-09T00:54:52.957Z,22.90
2023-04-09T00:57:20.290Z,22.37
2023-04-09T00:59:48.144Z,22.80
2023-04-09T01:02:15.014Z,23.60
2023-04-09T01:04:42.919Z,23.97
2023-04-09T01:07:13.128Z,22.53
2023-04-09T01:09:45.922Z,22.13
2023-04-09T01:12:30.103Z,22.90
2023-04-09T01:15:08.330Z,22.13
2023-04-09T01:17:38.264Z,22.27
2023-04-09T01:20:37.238Z,23.63
2023-04-09T01:23:26.022Z,23.77
2023-04-09T01:25:55.692Z,24.37
2023-04-09T01:28:39.331Z,23.50
2023-04-09T01:31:15.367Z,23.60
2023-04-09T01:33:42.859Z,23.87
2023-04-09T01:36:10.347Z,26.33
2023-04-09T01:38:40.220Z,25.97
2023-04-09T01:41:09.490Z,25.87
2023-04-09T01:43:38.102Z,23.83
2023-04-09T01:46:05.140Z,23.37
2023-04-09T01:48:32.826Z,24.80
2023-04-09T01:50:59.789Z,22.70
2023-04-09T01:53:31.008Z,22.87
2023-04-09T01:56:01.633Z,22.80
2023-04-09T01:58:28.518Z,23.00
2023-04-09T02:01:04.087Z,22.33
2023-04-09T02:03:37.985Z,21.83
2023-04-09T02:06:17.308Z,21.20
2023-04-09T02:08:46.838Z,22.30
2023-04-09T02:11:15.926Z,22.93
2023-04-09T02:13:44.183Z,22.03
2023-04-09T02:16:13.857Z,21.70
2023-04-09T02:18:40.798Z,21.93
2023-04-09T02:21:07.524Z,22.63
2023-04-09T02:23:35.092Z,22.20
2023-04-09T02:26:02.329Z,23.13
2023-04-09T02:28:29.089Z,22.00
2023-04-09T02:30:55.833Z,22.03
2023-04-09T02:33:22.570Z,22.43
2023-04-09T02:35:49.348Z,21.83
2023-04-09T02:38:16.221Z,21.50
2023-04-09T02:40:43.133Z,22.63
2023-04-09T02:43:10.297Z,23.07
2023-04-09T02:45:37.091Z,22.40
2023-04-09T02:48:04.049Z,23.30
2023-04-09T02:50:30.844Z,23.27
2023-04-09T02:52:57.645Z,22.50
2023-04-09T02:55:24.381Z,23.63
2023-04-09T02:57:51.093Z,22.27
2023-04-09T03:00:17.818Z,21.57
2023-04-09T03:02:44.648Z,22.50
2023-04-09T03:05:11.681Z,23.17
2023-04-09T03:07:38.412Z,23.27
2023-04-09T03:10:05.639Z,22.23
2023-04-09T03:12:32.348Z,23.73
2023-04-09T03:14:59.163Z,23.70
2023-04-09T03:17:27.316Z,23.40
2023-04-09T03:19:54.321Z,22.70
2023-04-09T03:22:21.092Z,22.53
2023-04-09T03:24:48.036Z,22.13
2023-04-09T03:27:14.977Z,21.47
2023-04-09T03:29:41.747Z,21.20
2023-04-09T03:32:08.485Z,22.47
2023-04-09T03:34:35.490Z,21.77
2023-04-09T03:37:02.505Z,22.37
2023-04-09T03:39:30.953Z,21.03
2023-04-09T03:41:59.024Z,23.20
2023-04-09T03:44:25.879Z,21.87
2023-04-09T03:46:52.821Z,21.53
2023-04-09T03:49:19.721Z,21.73
2023-04-09T03:51:46.575Z,21.80
2023-04-09T03:54:13.464Z,22.27
2023-04-09T03:56:40.271Z,21.90
2023-04-09T03:59:07.062Z,21.93
2023-04-09T04:01:34.933Z,20.23
2023-04-09T04:04:02.097Z,21.50
2023-04-09T04:06:29.029Z,22.33
2023-04-09T04:08:55.731Z,22.67
2023-04-09T04:11:22.465Z,22.03
2023-04-09T04:13:49.154Z,23.20
2023-04-09T04:16:15.995Z,21.57
2023-04-09T04:18:42.756Z,22.67
2023-04-09T04:21:16.381Z,23.00
2023-04-09T04:23:43.107Z,24.27
2023-04-09T04:26:10.856Z,23.57
2023-04-09T04:28:38.280Z,23.70
2023-04-09T04:31:12.536Z,22.87
2023-04-09T04:33:41.253Z,23.17
2023-04-09T04:36:12.749Z,24.03
2023-04-09T04:38:41.267Z,25.23
2023-04-09T04:41:08.390Z,24.03
2023-04-09T04:43:35.416Z,22.60
2023-04-09T04:46:02.237Z,23.60
2023-04-09T04:48:29.327Z,23.60
2023-04-09T04:50:58.013Z,24.30
2023-04-09T04:53:25.189Z,24.48
2023-04-09T04:55:51.918Z,24.83
2023-04-09T04:58:19.188Z,24.07
2023-04-09T05:00:46.477Z,23.97
2023-04-09T05:03:13.889Z,22.73
2023-04-09T05:05:40.719Z,22.83
2023-04-09T05:08:07.844Z,22.07
2023-04-09T05:10:43.586Z,23.07
2023-04-09T05:13:13.704Z,23.27
2023-04-09T05:15:41.203Z,22.93
2023-04-09T05:18:08.720Z,23.03
2023-04-09T05:20:35.779Z,23.93
2023-04-09T05:23:02.633Z,23.63
2023-04-09T05:25:29.340Z,22.70
2023-04-09T05:27:56.407Z,22.07
2023-04-09T05:30:23.168Z,22.07
2023-04-09T05:32:49.948Z,24.87
2023-04-09T05:35:16.708Z,24.40
2023-04-09T05:37:43.427Z,23.20
2023-04-09T05:40:10.922Z,23.60
2023-04-09T05:42:37.977Z,23.73
2023-04-09T05:45:05.617Z,22.80
2023-04-09T05:47:32.581Z,23.00
2023-04-09T05:49:59.310Z,23.03
2023-04-09T05:52:26.868Z,23.10
2023-04-09T05:54:53.546Z,20.60
2023-04-09T05:57:20.254Z,20.50
2023-04-09T05:59:46.989Z,22.17
2023-04-09T06:02:13.864Z,23.07
2023-04-09T06:04:40.774Z,22.90
2023-04-09T06:07:07.528Z,22.87
2023-04-09T06:09:34.259Z,23.53
2023-04-09T06:12:00.996Z,22.10
2023-04-09T06:14:27.768Z,23.27
2023-04-09T06:16:54.457Z,21.33
2023-04-09T06:19:22.293Z,21.47
2023-04-09T06:21:49.017Z,21.77
2023-04-09T06:24:15.744Z,21.17
2023-04-09T06:26:42.505Z,23.10
2023-04-09T06:29:09.245Z,22.87
2023-04-09T06:31:36.008Z,23.33
2023-04-09T06:34:02.743Z,22.13
2023-04-09T06:36:30.338Z,23.37
2023-04-09T06:38:57.651Z,21.87
2023-04-09T06:41:24.395Z,22.43
2023-04-09T06:43:51.280Z,21.40
2023-04-09T06:46:20.332Z,20.67
2023-04-09T06:48:47.697Z,19.87
2023-04-09T06:51:15.052Z,20.60
2023-04-09T06:53:42.207Z,19.60
2023-04-09T06:56:09.452Z,18.30
2023-04-09T06:58:36.656Z,19.43
2023-04-09T07:01:03.610Z,20.03
2023-04-09T07:03:31.028Z,18.90
2023-04-09T07:05:58.928Z,19.10
2023-04-09T07:08:26.053Z,20.10
2023-04-09T07:10:52.788Z,18.07
2023-04-09T07:13:19.613Z,19.47
2023-04-09T07:15:46.431Z,17.57
2023-04-09T07:18:13.253Z,18.27
2023-04-09T07:20:39.995Z,18.03
2023-04-09T07:23:06.699Z,19.07
2023-04-09T07:25:33.997Z,17.77
2023-04-09T07:28:00.740Z,18.63
2023-04-09T07:30:27.511Z,16.37
2023-04-09T07:32:54.430Z,15.27
2023-04-09T07:35:21.810Z,14.83
2023-04-09T07:37:48.592Z,13.25
2023-04-09T07:40:15.377Z,12.52
2023-04-09T07:42:42.509Z,14.15
2023-04-09T07:45:09.683Z,13.10
2023-04-09T07:47:36.478Z,13.82
2023-04-09T07:50:03.202Z,13.13
2023-04-09T07:52:29.907Z,12.02
2023-04-09T07:54:56.571Z,14.30
2023-04-09T07:57:23.326Z,13.63
2023-04-09T07:59:50.190Z,12.70
2023-04-09T08:02:17.822Z,14.35
2023-04-09T08:04:44.898Z,12.40
2023-04-09T08:07:11.888Z,18.30
2023-04-09T08:09:38.561Z,14.38
2023-04-09T08:12:05.499Z,12.18
2023-04-09T08:14:32.320Z,13.52
2023-04-09T08:17:00.271Z,11.35
2023-04-09T08:19:27.141Z,11.63
2023-04-09T08:21:53.830Z,11.63
2023-04-09T08:24:21.444Z,12.35
2023-04-09T08:26:48.182Z,11.90
2023-04-09T08:29:15.543Z,10.93
2023-04-09T08:31:42.525Z,12.73
2023-04-09T08:34:09.407Z,8.98
2023-04-09T08:36:36.227Z,9.82
2023-04-09T08:39:04.260Z,12.43
2023-04-09T08:41:31.526Z,16.10
2023-04-09T08:43:59.776Z,11.02
2023-04-09T08:46:27.723Z,12.05
2023-04-09T08:48:55.044Z,12.07
2023-04-09T08:51:23.566Z,11.80
2023-04-09T08:53:56.527Z,12.90
2023-04-09T08:56:24.034Z,12.63
2023-04-09T08:58:51.415Z,13.07
2023-04-09T09:01:25.507Z,10.32
2023-04-09T09:03:56.877Z,10.75
2023-04-09T09:06:29.298Z,9.82
2023-04-09T09:09:06.666Z,9.98
2023-04-09T09:11:38.247Z,10.90
2023-04-09T09:14:16.298Z,10.13
2023-04-09T09:17:03.782Z,10.40
2023-04-09T09:19:33.475Z,9.23
2023-04-09T09:22:04.721Z,9.30
2023-04-09T09:24:34.984Z,9.27
2023-04-09T09:27:02.680Z,9.43
2023-04-09T09:29:29.691Z,10.00
2023-04-09T09:31:56.715Z,10.48
2023-04-09T09:34:24.868Z,10.13
2023-04-09T09:36:51.709Z,9.38
2023-04-09T09:39:18.527Z,10.50
2023-04-09T09:41:47.354Z,10.27
2023-04-09T09:44:31.892Z,10.50
2023-04-09T09:46:59.408Z,9.55
2023-04-09T09:49:26.298Z,10.50
2023-04-09T09:51:55.633Z,10.50
2023-04-09T09:54:25.487Z,10.02
2023-04-09T09:56:56.016Z,10.68
2023-04-09T09:59:32.048Z,10.18
2023-04-09T10:02:05.989Z,10.82
2023-04-09T10:04:38.214Z,10.88
2023-04-09T10:07:07.064Z,10.07
2023-04-09T10:09:42.923Z,9.98
2023-04-09T10:12:11.948Z,9.88
2023-04-09T10:14:39.697Z,10.95
2023-04-09T10:17:06.913Z,9.02
2023-04-09T10:19:38.753Z,9.10
2023-04-09T10:22:17.875Z,9.15
2023-04-09T10:24:46.062Z,8.23
2023-04-09T10:27:16.756Z,7.70
2023-04-09T10:29:49.000Z,8.60
2023-04-09T10:32:26.345Z,8.30
2023-04-09T10:34:57.667Z,7.60
2023-04-09T10:37:28.707Z,7.63
2023-04-09T10:39:57.725Z,7.25
2023-04-09T10:42:32.706Z,6.90
2023-04-09T10:45:11.614Z,8.80
2023-04-09T10:47:43.109Z,7.20
2023-04-09T10:50:27.862Z,7.50
2023-04-09T10:53:00.704Z,8.00
2023-04-09T10:55:31.446Z,6.82
2023-04-09T10:57:58.813Z,7.20
2023-04-09T11:00:25.690Z,7.63
2023-04-09T11:03:40.309Z,7.15
2023-04-09T11:06:10.572Z,6.63
2023-04-09T11:08:38.697Z,6.78
2023-04-09T11:11:05.997Z,7.68
2023-04-09T11:13:34.153Z,7.22
2023-04-09T11:16:03.423Z,6.10
2023-04-09T11:18:30.871Z,6.60
2023-04-09T11:20:59.552Z,6.03
2023-04-09T11:23:26.775Z,6.00
2023-04-09T11:25:54.193Z,6.03
2023-04-09T11:28:21.444Z,6.28
2023-04-09T11:30:50.890Z,6.30
2023-04-09T11:33:19.773Z,6.97
2023-04-09T11:35:47.668Z,6.57
2023-04-09T11:38:14.668Z,6.45
2023-04-09T11:40:49.914Z,6.25
2023-04-09T11:43:17.896Z,6.13
2023-04-09T11:45:47.092Z,6.38
2023-04-09T11:48:15.062Z,6.40
2023-04-09T11:50:42.018Z,6.10
2023-04-09T11:53:19.096Z,6.78
2023-04-09T11:55:49.594Z,6.30
2023-04-09T11:58:16.666Z,5.90
2023-04-09T12:00:43.496Z,6.55
2023-04-09T12:03:10.913Z,6.57
2023-04-09T12:05:40.634Z,6.28
2023-04-09T12:08:09.101Z,6.70
2023-04-09T12:10:38.602Z,6.05
2023-04-09T12:13:13.692Z,6.65
2023-04-09T12:15:43.429Z,5.97
2023-04-09T12:18:13.752Z,5.50
2023-04-09T12:20:46.472Z,6.03
2023-04-09T12:23:13.892Z,5.30
2023-04-09T12:25:42.774Z,5.15
2023-04-09T12:28:13.729Z,5.70
2023-04-09T12:30:40.676Z,6.25
2023-04-09T12:33:10.278Z,6.43
2023-04-09T12:35:38.267Z,5.22
2023-04-09T12:38:05.275Z,5.97
2023-04-09T12:40:32.107Z,5.22
2023-04-09T12:42:58.899Z,5.90
2023-04-09T12:45:25.899Z,5.50
2023-04-09T12:47:53.054Z,5.93
2023-04-09T12:50:19.967Z,5.60
2023-04-09T12:52:46.816Z,5.63
2023-04-09T12:55:14.932Z,6.13
2023-04-09T12:57:44.997Z,5.18
2023-04-09T13:00:12.704Z,5.15
2023-04-09T13:02:41.709Z,5.22
2023-04-09T13:05:09.050Z,6.30
2023-04-09T13:07:35.856Z,4.80
2023-04-09T13:10:02.651Z,4.95
2023-04-09T13:12:30.172Z,5.85
2023-04-09T13:14:56.962Z,6.10
2023-04-09T13:17:23.894Z,5.22
2023-04-09T13:19:51.875Z,5.00
2023-04-09T13:22:19.286Z,5.40
2023-04-09T13:24:46.102Z,5.13
2023-04-09T13:27:12.865Z,7.25
2023-04-09T13:29:39.753Z,4.45
2023-04-09T13:32:10.910Z,4.93
2023-04-09T13:34:39.674Z,5.35
2023-04-09T13:37:06.969Z,5.15
2023-04-09T13:39:33.934Z,5.43
2023-04-09T13:42:07.345Z,5.75
2023-04-09T13:44:42.287Z,5.28
2023-04-09T13:47:11.211Z,4.80
2023-04-09T13:49:38.426Z,5.03
2023-04-09T13:52:05.539Z,4.85
2023-04-09T13:54:33.634Z,5.32
2023-04-09T13:57:00.709Z,5.60
2023-04-09T13:59:27.637Z,5.13
2023-04-09T14:01:54.426Z,4.68
2023-04-09T14:04:21.775Z,4.93
2023-04-09T14:06:48.540Z,4.78
2023-04-09T14:09:15.567Z,4.40
2023-04-09T14:11:42.286Z,4.45
2023-04-09T14:14:09.368Z,4.80
2023-04-09T14:16:36.302Z,4.78
2023-04-09T14:19:03.251Z,4.63
2023-04-09T14:21:29.984Z,4.47
2023-04-09T14:23:56.765Z,4.70
2023-04-09T14:26:24.329Z,4.50
2023-04-09T14:28:51.710Z,4.40
2023-04-09T14:31:21.839Z,4.93
2023-04-09T14:33:49.107Z,5.68
2023-04-09T14:36:16.765Z,5.55
2023-04-09T14:38:43.585Z,4.95
2023-04-09T14:41:10.350Z,5.70
2023-04-09T14:43:37.207Z,5.53
2023-04-09T14:46:06.406Z,5.28
2023-04-09T14:48:33.167Z,4.82
2023-04-09T14:50:59.853Z,4.80
2023-04-09T14:53:26.746Z,4.93
2023-04-09T14:55:53.492Z,4.72
2023-04-09T14:58:20.807Z,4.47
2023-04-09T15:00:47.812Z,5.10
2023-04-09T15:03:15.044Z,5.30
2023-04-09T15:05:41.937Z,4.75
2023-04-09T15:08:08.602Z,4.88
2023-04-09T15:10:36.755Z,4.78
2023-04-09T15:13:03.500Z,4.90
2023-04-09T15:15:30.630Z,5.55
2023-04-09T15:17:57.356Z,4.80
2023-04-09T15:20:24.135Z,6.50
2023-04-09T15:22:51.251Z,7.00
2023-04-09T15:25:18.019Z,7.45
2023-04-09T15:27:46.492Z,7.30
2023-04-09T15:30:13.234Z,6.05
2023-04-09T15:32:40.113Z,5.80
2023-04-09T15:35:07.160Z,4.93
2023-04-09T15:37:33.904Z,5.22
2023-04-09T15:40:00.585Z,5.97
2023-04-09T15:42:27.406Z,6.07
2023-04-09T15:44:55.068Z,5.20
2023-04-09T15:47:21.841Z,5.97
2023-04-09T15:49:48.538Z,5.00
2023-04-09T15:52:15.345Z,5.55
2023-04-09T15:54:42.095Z,5.80
2023-04-09T15:57:08.852Z,5.35
2023-04-09T15:59:35.656Z,5.60
2023-04-09T16:02:04.447Z,4.88
2023-04-09T16:04:31.290Z,5.60
2023-04-09T16:06:58.206Z,5.97
2023-04-09T16:09:24.956Z,5.83
2023-04-09T16:11:51.646Z,5.13
2023-04-09T16:14:18.396Z,5.27
2023-04-09T16:16:49.559Z,5.23
2023-04-09T16:19:17.659Z,5.00
2023-04-09T16:21:45.481Z,5.30
2023-04-09T16:24:12.803Z,4.60
2023-04-09T16:26:43.852Z,5.17
2023-04-09T16:29:11.117Z,4.53
2023-04-09T16:31:39.244Z,4.70
2023-04-09T16:34:06.018Z,4.77
2023-04-09T16:36:36.885Z,4.28
2023-04-09T16:39:06.645Z,4.70
2023-04-09T16:41:34.899Z,5.22
2023-04-09T16:44:03.192Z,5.17
2023-04-09T16:46:29.980Z,4.95
2023-04-09T16:48:56.874Z,4.90
2023-04-09T16:51:25.058Z,6.00
2023-04-09T16:53:51.910Z,5.50
2023-04-09T16:56:28.528Z,4.47
2023-04-09T16:58:55.720Z,4.83
2023-04-09T17:01:22.724Z,4.33
2023-04-09T17:03:49.747Z,4.93
2023-04-09T17:06:16.653Z,4.83
2023-04-09T17:08:43.405Z,4.20
2023-04-09T17:11:14.032Z,5.30
2023-04-09T17:13:40.730Z,5.90
2023-04-09T17:16:08.091Z,5.10
2023-04-09T17:18:34.786Z,6.20
2023-04-09T17:21:01.487Z,4.77
2023-04-09T17:23:28.216Z,5.23
2023-04-09T17:25:54.933Z,4.73
2023-04-09T17:28:21.938Z,8.17
2023-04-09T17:30:48.908Z,9.13
2023-04-09T17:33:15.924Z,7.93
2023-04-09T17:35:43.366Z,6.67
2023-04-09T17:38:11.979Z,6.80
2023-04-09T17:40:38.854Z,6.30
2023-04-09T17:43:07.751Z,6.20
2023-04-09T17:45:34.522Z,5.93
2023-04-09T17:48:01.231Z,5.67
2023-04-09T17:50:28.360Z,5.40
2023-04-09T17:52:55.461Z,5.67
2023-04-09T17:55:23.393Z,5.60
2023-04-09T17:57:50.548Z,5.90
2023-04-09T18:00:17.388Z,5.20
2023-04-09T18:02:44.994Z,5.43
2023-04-09T18:05:11.924Z,5.83
2023-04-09T18:07:38.760Z,5.67
2023-04-09T18:10:06.266Z,6.13
2023-04-09T18:12:33.120Z,6.10
2023-04-09T18:14:59.869Z,6.00
2023-04-09T18:17:26.729Z,6.13
2023-04-09T18:19:54.715Z,6.33
2023-04-09T18:22:21.826Z,11.40
2023-04-09T18:24:48.743Z,11.53
2023-04-09T18:27:16.272Z,10.47
2023-04-09T18:29:42.966Z,10.83
2023-04-09T18:32:09.726Z,12.30
2023-04-09T18:34:37.418Z,12.37
2023-04-09T18:37:04.132Z,12.50
2023-04-09T18:39:31.000Z,17.20
2023-04-09T18:41:57.954Z,19.37
2023-04-09T18:44:24.741Z,16.23
2023-04-09T18:46:52.211Z,12.90
2023-04-09T18:49:19.033Z,12.20
2023-04-09T18:51:45.877Z,11.80
2023-04-09T18:54:12.590Z,11.20
2023-04-09T18:56:39.313Z,10.13
2023-04-09T18:59:06.338Z,9.20
2023-04-09T19:01:33.134Z,9.17
2023-04-09T19:04:00.208Z,8.70
2023-04-09T19:06:27.971Z,8.57
2023-04-09T19:08:58.216Z,6.87
2023-04-09T19:11:25.941Z,7.93
2023-04-09T19:13:52.672Z,7.10
2023-04-09T19:16:20.720Z,6.77
2023-04-09T19:18:47.778Z,8.07
2023-04-09T19:21:14.559Z,8.40
2023-04-09T19:23:41.261Z,9.53
2023-04-09T19:26:09.749Z,11.40
2023-04-09T19:28:36.788Z,18.03
2023-04-09T19:31:06.353Z,17.70
2023-04-09T19:33:33.113Z,16.33
2023-04-09T19:35:59.860Z,16.90
2023-04-09T19:38:26.739Z,15.17
2023-04-09T19:40:53.488Z,13.47
2023-04-09T19:43:20.305Z,14.20
2023-04-09T19:45:47.092Z,15.17
2023-04-09T19:48:13.884Z,14.10
2023-04-09T19:50:41.253Z,13.57
2023-04-09T19:53:07.998Z,12.13
2023-04-09T19:55:35.231Z,12.80
2023-04-09T19:58:02.472Z,13.17
2023-04-09T20:00:29.661Z,12.90
2023-04-09T20:02:57.323Z,12.57
2023-04-09T20:05:24.892Z,12.60
2023-04-09T20:07:52.599Z,12.87
2023-04-09T20:10:19.809Z,16.43
2023-04-09T20:12:50.311Z,16.53
2023-04-09T20:15:19.986Z,14.27
2023-04-09T20:17:50.948Z,15.27
2023-04-09T20:20:20.062Z,13.47
2023-04-09T20:22:56.455Z,15.50
2023-04-09T20:25:24.648Z,14.50
2023-04-09T20:27:54.748Z,13.40
2023-04-09T20:30:22.739Z,12.77
2023-04-09T20:32:49.728Z,12.67
2023-04-09T20:35:16.685Z,11.10
2023-04-09T20:37:44.119Z,9.07
2023-04-09T20:40:12.028Z,9.23
2023-04-09T20:42:40.843Z,9.63
2023-04-09T20:45:08.764Z,9.23
2023-04-09T20:47:35.710Z,9.33
2023-04-09T20:50:03.339Z,8.53
2023-04-09T20:52:30.552Z,10.13
2023-04-09T20:54:57.695Z,10.77
2023-04-09T20:57:24.454Z,10.33
2023-04-09T20:59:52.822Z,9.70
2023-04-09T21:02:19.910Z,10.30
2023-04-09T21:04:47.073Z,10.10
2023-04-09T21:07:14.206Z,11.57
2023-04-09T21:09:41.083Z,11.00
2023-04-09T21:12:07.832Z,12.43
2023-04-09T21:14:34.615Z,11.70
2023-04-09T21:17:01.391Z,11.63
2023-04-09T21:19:28.280Z,11.93
2023-04-09T21:21:55.089Z,10.67
2023-04-09T21:24:21.840Z,11.63
2023-04-09T21:26:51.594Z,11.33
2023-04-09T21:29:21.094Z,11.50
2023-04-09T21:31:48.723Z,10.97
2023-04-09T21:34:16.076Z,10.60
2023-04-09T21:36:44.952Z,10.93
2023-04-09T21:39:12.164Z,11.67
2023-04-09T21:41:39.097Z,12.60
2023-04-09T21:44:08.342Z,13.17
2023-04-09T21:46:36.976Z,13.60
2023-04-09T21:49:04.366Z,12.87
2023-04-09T21:51:31.578Z,14.10
2023-04-09T21:54:11.375Z,13.30
2023-04-09T21:56:38.813Z,13.13
2023-04-09T21:59:08.527Z,13.17
2023-04-09T22:01:35.551Z,14.00
2023-04-09T22:04:02.672Z,14.13
2023-04-09T22:06:29.651Z,12.30
2023-04-09T22:08:57.968Z,12.00
2023-04-09T22:11:27.547Z,11.57
2023-04-09T22:13:56.241Z,11.67
2023-04-09T22:16:25.152Z,10.77
2023-04-09T22:18:53.369Z,11.20
2023-04-09T22:21:20.776Z,10.97
2023-04-09T22:23:47.491Z,9.80
2023-04-09T22:26:14.339Z,10.37
2023-04-09T22:28:41.090Z,10.73
2023-04-09T22:31:08.024Z,10.27
2023-04-09T22:33:34.904Z,11.17
2023-04-09T22:36:01.850Z,10.10
2023-04-09T22:38:28.691Z,10.33
2023-04-09T22:40:58.640Z,10.60
2023-04-09T22:43:25.409Z,10.43
2023-04-09T22:45:54.292Z,10.43
2023-04-09T22:48:22.066Z,10.80
2023-04-09T22:50:49.799Z,11.20
2023-04-09T22:53:19.944Z,11.63
2023-04-09T22:55:51.527Z,11.63
2023-04-09T22:58:18.935Z,12.00
2023-04-09T23:00:47.169Z,11.90
2023-04-09T23:03:14.303Z,11.77
2023-04-09T23:05:41.464Z,12.07
2023-04-09T23:08:08.374Z,11.63
2023-04-09T23:10:35.613Z,12.10
2023-04-09T23:13:02.558Z,11.30
2023-04-09T23:15:29.529Z,11.20
2023-04-09T23:17:56.714Z,11.53
2023-04-09T23:20:23.854Z,11.60
2023-04-09T23:22:50.913Z,11.13
2023-04-09T23:25:17.990Z,11.10
2023-04-09T23:27:44.949Z,11.87
2023-04-09T23:30:16.641Z,13.40
2023-04-09T23:32:44.780Z,12.93
2023-04-09T23:35:11.764Z,14.13
2023-04-09T23:37:39.689Z,13.33
2023-04-09T23:40:07.523Z,12.97
2023-04-09T23:42:34.537Z,13.57
2023-04-09T23:45:04.082Z,14.13
2023-04-09T23:47:35.657Z,14.20
2023-04-09T23:50:07.516Z,14.40
2023-04-09T23:52:35.918Z,13.47
2023-04-09T23:55:03.531Z,13.33
2023-04-09T23:57:30.337Z,13.17
2023-04-09T23:59:57.424Z,13.43
